createdAt,value
2023-02-08T07:08:03.848Z,-0.35
2023-02-08T07:10:32.436Z,-0.33
2023-02-08T07:13:02.408Z,-0.64
2023-02-08T07:15:31.158Z,-0.62
2023-02-08T07:18:00.027Z,-0.78
2023-02-08T07:20:29.133Z,-1.47
2023-02-08T07:22:57.993Z,-1.55
2023-02-08T07:25:26.273Z,-0.97
2023-02-08T07:27:55.077Z,-0.51
2023-02-08T07:30:23.646Z,-0.25
2023-02-08T07:32:52.548Z,-0.70
2023-02-08T07:35:20.761Z,-0.69
2023-02-08T07:37:48.901Z,0.07
2023-02-08T07:40:17.664Z,0.70
2023-02-08T07:42:46.264Z,0.73
2023-02-08T07:45:23.395Z,0.40
2023-02-08T07:47:51.921Z,0.82
2023-02-08T07:50:20.272Z,1.23
2023-02-08T07:52:48.544Z,0.08
2023-02-08T07:55:17.325Z,-0.83
2023-02-08T07:57:47.889Z,-1.46
2023-02-08T08:00:17.662Z,-1.46
2023-02-08T08:02:46.038Z,-0.87
2023-02-08T08:05:14.320Z,-1.41
2023-02-08T08:07:44.835Z,-1.78
2023-02-08T08:10:13.440Z,-1.34
2023-02-08T08:12:41.605Z,-0.27
2023-02-08T08:15:10.318Z,0.99
2023-02-08T08:17:42.175Z,1.70
2023-02-08T08:20:11.183Z,0.96
2023-02-08T08:22:39.624Z,0.68
2023-02-08T08:25:07.952Z,0.64
2023-02-08T08:27:36.420Z,-0.01
2023-02-08T08:30:12.939Z,1.25
2023-02-08T08:32:42.096Z,2.31
2023-02-08T08:35:10.693Z,2.87
2023-02-08T08:37:39.064Z,3.03
2023-02-08T08:40:08.426Z,3.02
2023-02-08T08:42:39.929Z,2.10
2023-02-08T08:45:08.859Z,0.72
2023-02-08T08:47:37.139Z,0.46
2023-02-08T08:50:06.709Z,1.02
2023-02-08T08:52:34.988Z,1.16
2023-02-08T08:55:04.327Z,1.14
2023-02-08T08:57:32.501Z,1.88
2023-02-08T09:00:02.968Z,2.12
2023-02-08T09:02:31.288Z,2.12
2023-02-08T09:05:05.554Z,2.47
2023-02-08T09:07:35.048Z,2.27
2023-02-08T09:10:04.108Z,1.78
2023-02-08T09:12:33.260Z,0.98
2023-02-08T09:15:01.588Z,0.77
2023-02-08T09:17:30.080Z,0.40
2023-02-08T09:19:58.559Z,-0.30
2023-02-08T09:22:26.943Z,-1.12
2023-02-08T09:24:55.402Z,-1.64
2023-02-08T09:27:23.567Z,-1.88
2023-02-08T09:29:52.458Z,-1.81
2023-02-08T09:32:21.506Z,-1.84
2023-02-08T09:34:49.901Z,-1.82
2023-02-08T09:37:18.332Z,-1.93
2023-02-08T09:39:47.252Z,-1.92
2023-02-08T09:42:24.663Z,-1.32
2023-02-08T09:45:02.516Z,-1.05
2023-02-08T09:47:30.842Z,-0.81
2023-02-08T09:50:06.763Z,-0.14
2023-02-08T09:52:38.452Z,0.57
2023-02-08T09:55:20.972Z,0.93
2023-02-08T09:57:49.110Z,0.39
2023-02-08T10:00:21.002Z,-0.42
2023-02-08T10:02:50.127Z,-0.11
2023-02-08T10:05:21.417Z,0.53
2023-02-08T10:07:49.757Z,1.28
2023-02-08T10:10:41.451Z,1.39
2023-02-08T10:13:41.149Z,0.45
2023-02-08T10:16:13.651Z,-0.18
2023-02-08T10:19:05.027Z,-1.15
2023-02-08T10:21:53.795Z,-1.78
2023-02-08T10:24:26.268Z,-1.94
2023-02-08T10:27:17.873Z,-2.19
2023-02-08T10:30:31.315Z,-2.39
2023-02-08T10:33:01.569Z,-2.55
2023-02-08T10:35:37.348Z,-2.74
2023-02-08T10:38:23.392Z,-2.97
2023-02-08T10:40:55.930Z,-3.08
2023-02-08T10:43:33.217Z,-3.12
2023-02-08T10:46:20.465Z,-3.10
2023-02-08T10:48:59.133Z,-3.09
2023-02-08T10:51:27.195Z,-3.12
2023-02-08T10:53:55.487Z,-3.06
2023-02-08T10:56:45.347Z,-3.07
2023-02-08T10:59:17.045Z,-3.09
2023-02-08T11:01:45.507Z,-3.10
2023-02-08T11:04:14.054Z,-3.02
2023-02-08T11:06:44.182Z,-2.94
2023-02-08T11:09:26.153Z,-2.87
2023-02-08T11:11:55.274Z,-2.80
2023-02-08T11:14:46.196Z,-2.77
2023-02-08T11:17:35.773Z,-2.76
2023-02-08T11:20:04.331Z,-2.76
2023-02-08T11:22:34.596Z,-2.77
2023-02-08T11:25:06.174Z,-2.76
2023-02-08T11:27:36.627Z,-2.69
2023-02-08T11:30:14.079Z,-2.63
2023-02-08T11:32:43.342Z,-2.66
2023-02-08T11:35:20.692Z,-2.69
2023-02-08T11:37:50.476Z,-2.72
2023-02-08T11:40:24.998Z,-2.73
2023-02-08T11:42:54.400Z,-2.69
2023-02-08T11:45:30.459Z,-2.73
2023-02-08T11:47:58.944Z,-2.71
2023-02-08T11:50:39.918Z,-2.64
2023-02-08T11:53:23.448Z,-2.59
2023-02-08T11:56:22.644Z,-2.57
2023-02-08T11:59:09.522Z,-2.62
2023-02-08T12:01:39.722Z,-2.68
2023-02-08T12:04:11.163Z,-2.70
2023-02-08T12:07:12.355Z,-2.76
2023-02-08T12:09:58.534Z,-2.81
2023-02-08T12:12:49.327Z,-2.79
2023-02-08T12:15:23.532Z,-2.84
2023-02-08T12:18:26.110Z,-2.89
2023-02-08T12:21:28.680Z,-2.89
2023-02-08T12:24:06.780Z,-2.91
2023-02-08T12:26:55.115Z,-2.96
2023-02-08T12:29:23.576Z,-2.98
2023-02-08T12:32:06.824Z,-3.00
2023-02-08T12:34:56.489Z,-3.03
2023-02-08T12:37:44.010Z,-3.03
2023-02-08T12:40:44.054Z,-3.03
2023-02-08T12:43:54.567Z,-3.06
2023-02-08T12:46:26.055Z,-3.06
2023-02-08T12:49:03.605Z,-3.05
2023-02-08T12:51:37.726Z,-3.07
2023-02-08T12:54:26.171Z,-3.05
2023-02-08T12:57:02.090Z,-3.07
2023-02-08T12:59:59.512Z,-3.12
2023-02-08T13:02:57.477Z,-3.14
2023-02-08T13:05:30.294Z,-3.13
2023-02-08T13:08:15.884Z,-3.14
2023-02-08T13:10:46.869Z,-3.15
2023-02-08T13:13:18.196Z,-3.16
2023-02-08T13:15:54.147Z,-3.16
2023-02-08T13:18:25.098Z,-3.15
2023-02-08T13:21:08.612Z,-3.13
2023-02-08T13:23:50.582Z,-3.18
2023-02-08T13:26:23.157Z,-3.20
2023-02-08T13:28:56.499Z,-3.23
2023-02-08T13:31:28.597Z,-3.25
2023-02-08T13:34:08.439Z,-3.22
2023-02-08T13:36:40.195Z,-3.25
2023-02-08T13:39:22.534Z,-3.27
2023-02-08T13:41:52.783Z,-3.31
2023-02-08T13:44:26.658Z,-3.34
2023-02-08T13:46:54.916Z,-3.37
2023-02-08T13:49:49.397Z,-3.41
2023-02-08T13:52:46.395Z,-3.45
2023-02-08T13:55:32.184Z,-3.53
2023-02-08T13:58:01.182Z,-3.57
2023-02-08T14:00:37.350Z,-3.59
2023-02-08T14:03:14.995Z,-3.61
2023-02-08T14:06:15.579Z,-3.62
2023-02-08T14:09:23.733Z,-3.69
2023-02-08T14:11:57.280Z,-3.74
2023-02-08T14:14:26.821Z,-3.76
2023-02-08T14:17:04.701Z,-3.81
2023-02-08T14:19:41.124Z,-3.88
2023-02-08T14:22:12.719Z,-3.90
2023-02-08T14:24:59.299Z,-3.95
2023-02-08T14:27:39.466Z,-3.99
2023-02-08T14:30:16.752Z,-4.02
2023-02-08T14:33:07.631Z,-4.07
2023-02-08T14:35:37.869Z,-4.11
2023-02-08T14:38:24.558Z,-4.11
2023-02-08T14:40:59.593Z,-4.12
2023-02-08T14:43:41.277Z,-4.11
2023-02-08T14:46:38.077Z,-4.09
2023-02-08T14:49:17.161Z,-4.10
2023-02-08T14:51:51.547Z,-4.12
2023-02-08T14:54:34.134Z,-4.16
2023-02-08T14:57:12.035Z,-4.18
2023-02-08T14:59:40.858Z,-4.23
2023-02-08T15:02:20.196Z,-4.27
2023-02-08T15:04:49.506Z,-4.31
2023-02-08T15:07:35.785Z,-4.34
2023-02-08T15:10:05.575Z,-4.39
2023-02-08T15:12:35.857Z,-4.43
